createdAt,value
2022-09-22T00:01:06.151Z,12.00
2022-09-22T00:03:33.825Z,7.70
2022-09-22T00:06:02.675Z,11.27
2022-09-22T00:08:32.277Z,11.23
2022-09-22T00:11:05.391Z,15.18
2022-09-22T00:13:33.212Z,11.13
2022-09-22T00:16:00.955Z,14.32
2022-09-22T00:18:28.256Z,7.78
2022-09-22T00:20:55.039Z,8.00
2022-09-22T00:23:26.236Z,8.88
2022-09-22T00:25:52.591Z,9.50
2022-09-22T00:28:20.146Z,11.30
2022-09-22T00:30:47.057Z,8.73
2022-09-22T00:33:13.340Z,10.60
2022-09-22T00:35:39.637Z,11.95
2022-09-22T00:38:06.126Z,11.65
2022-09-22T00:40:34.113Z,11.43
2022-09-22T00:43:22.117Z,13.25
2022-09-22T00:45:54.434Z,18.30
2022-09-22T00:48:23.359Z,9.40
2022-09-22T00:50:53.657Z,12.68
2022-09-22T00:53:22.799Z,10.15
2022-09-22T00:55:55.353Z,9.27
2022-09-22T00:58:30.656Z,11.32
2022-09-22T01:00:57.146Z,12.13
2022-09-22T01:03:29.809Z,12.23
2022-09-22T01:06:02.875Z,8.90
2022-09-22T01:08:31.283Z,9.23
2022-09-22T01:10:59.460Z,10.20
2022-09-22T01:13:39.624Z,7.20
2022-09-22T01:16:27.827Z,12.10
2022-09-22T01:19:00.384Z,12.40
2022-09-22T01:22:04.569Z,9.30
2022-09-22T01:24:55.830Z,11.07
2022-09-22T01:27:52.933Z,11.35
2022-09-22T01:30:23.732Z,12.80
2022-09-22T01:33:09.762Z,12.02
2022-09-22T01:36:03.961Z,8.45
2022-09-22T01:38:42.370Z,10.63
2022-09-22T01:41:21.431Z,11.02
2022-09-22T01:44:03.129Z,10.27
2022-09-22T01:46:34.285Z,9.10
2022-09-22T01:49:06.287Z,10.10
2022-09-22T01:51:48.845Z,8.75
2022-09-22T01:54:21.069Z,7.50
2022-09-22T01:56:55.734Z,7.10
2022-09-22T01:59:27.751Z,11.07
2022-09-22T02:02:00.461Z,8.32
2022-09-22T02:04:46.786Z,12.32
2022-09-22T02:07:20.806Z,12.52
2022-09-22T02:09:49.991Z,11.25
2022-09-22T02:12:18.328Z,7.70
2022-09-22T02:14:46.785Z,8.65
2022-09-22T02:17:14.981Z,13.77
2022-09-22T02:19:42.353Z,8.35
2022-09-22T02:22:10.780Z,8.38
2022-09-22T02:24:43.022Z,8.88
2022-09-22T02:27:26.267Z,8.32
2022-09-22T02:30:08.045Z,12.52
2022-09-22T02:32:37.418Z,7.65
2022-09-22T02:35:04.449Z,9.40
2022-09-22T02:37:45.219Z,9.40
2022-09-22T02:40:30.462Z,8.75
2022-09-22T02:43:07.451Z,7.90
2022-09-22T02:45:50.819Z,8.05
2022-09-22T02:48:25.454Z,10.43
2022-09-22T02:50:53.239Z,10.50
2022-09-22T02:53:19.583Z,7.65
2022-09-22T02:55:47.049Z,12.73
2022-09-22T02:58:15.920Z,9.55
2022-09-22T03:00:43.028Z,10.25
2022-09-22T03:03:11.454Z,11.00
2022-09-22T03:05:38.303Z,14.00
2022-09-22T03:08:05.022Z,9.05
2022-09-22T03:10:31.613Z,8.90
2022-09-22T03:13:15.631Z,8.63
2022-09-22T03:15:43.578Z,9.50
2022-09-22T03:18:09.961Z,8.20
2022-09-22T03:20:37.381Z,10.88
2022-09-22T03:23:03.685Z,8.82
2022-09-22T03:25:29.978Z,11.93
2022-09-22T03:27:56.320Z,11.30
2022-09-22T03:30:22.616Z,11.18
2022-09-22T03:32:48.905Z,11.43
2022-09-22T03:35:15.499Z,15.45
2022-09-22T03:37:41.793Z,6.93
2022-09-22T03:40:08.255Z,10.18
2022-09-22T03:42:35.491Z,9.43
2022-09-22T03:45:04.174Z,10.50
2022-09-22T03:47:31.016Z,9.02
2022-09-22T03:49:57.353Z,9.63
2022-09-22T03:52:24.045Z,9.20
2022-09-22T03:54:52.037Z,11.00
2022-09-22T03:57:18.328Z,10.02
2022-09-22T03:59:44.612Z,12.20
2022-09-22T04:02:11.354Z,10.98
2022-09-22T04:04:37.769Z,8.52
2022-09-22T04:07:07.366Z,9.82
2022-09-22T04:09:34.878Z,12.82
2022-09-22T04:12:01.576Z,11.38
2022-09-22T04:14:27.977Z,9.82
2022-09-22T04:16:54.403Z,14.05
2022-09-22T04:19:20.835Z,9.05
2022-09-22T04:21:47.134Z,11.63
2022-09-22T04:24:13.569Z,9.75
2022-09-22T04:26:47.720Z,7.85
2022-09-22T04:29:26.302Z,9.38
2022-09-22T04:31:52.598Z,12.68
2022-09-22T04:34:18.993Z,15.77
2022-09-22T04:36:45.843Z,11.27
2022-09-22T04:39:12.233Z,9.80
2022-09-22T04:41:38.706Z,9.40
2022-09-22T04:44:05.028Z,10.23
2022-09-22T04:46:31.347Z,10.10
2022-09-22T04:48:57.780Z,8.75
2022-09-22T04:51:24.080Z,8.07
2022-09-22T04:53:50.404Z,10.02
2022-09-22T04:56:17.306Z,9.43
2022-09-22T04:58:43.597Z,12.90
2022-09-22T05:01:09.950Z,9.85
2022-09-22T05:03:38.178Z,13.63
2022-09-22T05:06:06.327Z,12.30
2022-09-22T05:08:32.718Z,10.27
2022-09-22T05:10:59.692Z,10.70
2022-09-22T05:13:25.988Z,12.52
2022-09-22T05:15:52.568Z,11.05
2022-09-22T05:18:18.882Z,8.80
2022-09-22T05:20:45.735Z,9.00
2022-09-22T05:23:12.019Z,9.23
2022-09-22T05:25:39.072Z,9.98
2022-09-22T05:28:05.364Z,8.65
2022-09-22T05:30:31.707Z,9.45
2022-09-22T05:32:57.991Z,14.13
2022-09-22T05:35:25.556Z,12.68
2022-09-22T05:37:53.400Z,10.10
2022-09-22T05:40:20.510Z,12.27
2022-09-22T05:42:49.027Z,8.23
2022-09-22T05:45:16.550Z,11.38
2022-09-22T05:47:43.050Z,11.07
2022-09-22T05:50:11.394Z,13.20
2022-09-22T05:52:37.783Z,12.70
2022-09-22T05:55:04.961Z,12.35
2022-09-22T05:57:31.991Z,21.58
2022-09-22T05:59:58.645Z,14.30
2022-09-22T06:02:26.729Z,12.98
2022-09-22T06:04:54.007Z,11.85
2022-09-22T06:07:21.362Z,16.63
2022-09-22T06:09:48.332Z,19.27
2022-09-22T06:12:15.145Z,15.13
2022-09-22T06:14:41.475Z,10.52
2022-09-22T06:17:11.693Z,11.43
2022-09-22T06:19:39.291Z,10.30
2022-09-22T06:22:05.867Z,13.75
2022-09-22T06:24:32.479Z,12.35
2022-09-22T06:26:58.796Z,10.63
2022-09-22T06:29:25.871Z,10.70
2022-09-22T06:31:52.289Z,9.48
2022-09-22T06:34:18.829Z,12.60
2022-09-22T06:36:48.072Z,12.43
2022-09-22T06:39:14.804Z,8.68
2022-09-22T06:41:41.133Z,15.57
2022-09-22T06:44:08.888Z,10.55
2022-09-22T06:46:35.252Z,8.77
2022-09-22T06:49:02.460Z,14.35
2022-09-22T06:51:32.805Z,7.60
2022-09-22T06:54:01.836Z,13.18
2022-09-22T06:56:28.436Z,8.40
2022-09-22T06:59:09.758Z,8.50
2022-09-22T07:01:37.314Z,9.73
2022-09-22T07:04:04.496Z,8.30
2022-09-22T07:06:30.863Z,9.57
2022-09-22T07:08:57.198Z,9.63
2022-09-22T07:11:23.682Z,10.05
2022-09-22T07:13:53.203Z,11.00
2022-09-22T07:16:22.000Z,9.88
2022-09-22T07:18:50.492Z,6.28
2022-09-22T07:21:22.674Z,8.48
2022-09-22T07:23:49.888Z,13.10
2022-09-22T07:26:19.738Z,10.88
2022-09-22T07:28:50.287Z,8.75
2022-09-22T07:31:17.441Z,8.40
2022-09-22T07:33:45.068Z,12.27
2022-09-22T07:36:13.891Z,9.57
2022-09-22T07:38:42.107Z,8.80
2022-09-22T07:41:12.115Z,8.00
2022-09-22T07:43:40.253Z,6.40
2022-09-22T07:46:07.428Z,9.43
2022-09-22T07:48:36.312Z,8.10
2022-09-22T07:51:04.270Z,7.60
2022-09-22T07:53:31.582Z,7.90
2022-09-22T07:56:27.666Z,4.88
2022-09-22T07:58:54.556Z,5.65
2022-09-22T08:01:23.255Z,9.45
2022-09-22T08:03:50.760Z,11.18
2022-09-22T08:06:19.919Z,8.23
2022-09-22T08:08:52.247Z,8.85
2022-09-22T08:11:20.812Z,7.20
2022-09-22T08:16:28.749Z,9.68
2022-09-22T08:18:56.731Z,7.85
2022-09-22T08:21:24.740Z,7.38
2022-09-22T08:23:52.112Z,6.13
2022-09-22T08:26:20.088Z,10.45
2022-09-22T08:28:50.480Z,7.35
2022-09-22T08:31:19.995Z,9.45
2022-09-22T08:33:49.111Z,8.77
2022-09-22T08:36:16.522Z,7.20
2022-09-22T08:38:43.559Z,5.65
2022-09-22T08:41:15.667Z,8.63
2022-09-22T08:43:55.334Z,7.93
2022-09-22T08:46:30.914Z,7.60
2022-09-22T08:49:32.760Z,8.27
2022-09-22T08:52:26.892Z,11.88
2022-09-22T08:54:59.677Z,7.95
2022-09-22T08:57:56.150Z,8.32
2022-09-22T09:00:24.217Z,5.57
2022-09-22T09:03:05.849Z,12.68
2022-09-22T09:05:48.685Z,6.55
2022-09-22T09:08:39.201Z,10.55
2022-09-22T09:11:42.548Z,7.10
2022-09-22T09:14:41.055Z,7.95
2022-09-22T09:17:19.265Z,5.65
2022-09-22T09:19:53.238Z,4.95
2022-09-22T09:22:25.208Z,5.65
2022-09-22T09:27:46.906Z,5.68
2022-09-22T09:30:21.575Z,6.80
2022-09-22T09:32:52.680Z,6.65
2022-09-22T09:35:26.651Z,5.80
2022-09-22T09:37:58.933Z,6.78
2022-09-22T09:40:25.503Z,6.18
2022-09-22T09:43:05.419Z,5.80
2022-09-22T09:46:11.634Z,5.38
2022-09-22T09:49:05.726Z,4.53
2022-09-22T09:51:41.130Z,5.80
2022-09-22T09:54:14.442Z,5.05
2022-09-22T09:57:27.496Z,11.52
2022-09-22T10:00:34.263Z,4.47
2022-09-22T10:03:13.556Z,7.85
2022-09-22T10:05:40.007Z,17.10
2022-09-22T10:08:20.713Z,4.93
2022-09-22T10:10:47.895Z,2.75
2022-09-22T10:13:17.446Z,4.45
2022-09-22T10:16:01.401Z,3.05
2022-09-22T10:18:40.120Z,2.97
2022-09-22T10:21:15.623Z,5.25
2022-09-22T10:23:53.253Z,4.93
2022-09-22T10:26:26.162Z,2.80
2022-09-22T10:29:20.938Z,3.58
2022-09-22T10:32:06.222Z,2.75
2022-09-22T10:34:34.466Z,2.65
2022-09-22T10:37:03.240Z,3.00
2022-09-22T10:39:39.859Z,3.05
2022-09-22T10:42:14.892Z,3.45
2022-09-22T10:44:45.212Z,2.78
2022-09-22T10:47:24.787Z,3.58
2022-09-22T10:52:56.081Z,3.30
2022-09-22T10:55:37.212Z,3.95
2022-09-22T10:58:09.594Z,5.32
2022-09-22T11:00:39.425Z,4.38
2022-09-22T11:03:15.176Z,3.60
2022-09-22T11:06:21.657Z,2.00
2022-09-22T11:09:36.297Z,2.90
2022-09-22T11:12:17.585Z,3.42
2022-09-22T11:15:21.407Z,2.53
2022-09-22T11:17:58.570Z,3.90
2022-09-22T11:20:36.224Z,3.65
2022-09-22T11:23:24.641Z,4.30
2022-09-22T11:29:00.233Z,3.07
2022-09-22T11:34:35.751Z,4.50
2022-09-22T11:37:26.688Z,3.03
2022-09-22T11:39:55.928Z,1.10
2022-09-22T11:42:53.030Z,1.95
2022-09-22T11:45:25.745Z,2.92
2022-09-22T11:48:07.178Z,2.72
2022-09-22T11:50:43.296Z,4.28
2022-09-22T11:53:33.497Z,4.55
2022-09-22T11:56:31.315Z,2.22
2022-09-22T11:59:02.425Z,2.65
2022-09-22T12:01:35.722Z,10.35
2022-09-22T12:04:16.859Z,3.17
2022-09-22T12:06:46.027Z,3.20
2022-09-22T12:09:36.781Z,2.85
2022-09-22T12:12:04.888Z,2.60
2022-09-22T12:14:32.060Z,4.57
2022-09-22T12:17:12.451Z,3.05
2022-09-22T12:20:28.292Z,6.05
2022-09-22T12:23:13.634Z,1.20
2022-09-22T12:25:55.312Z,1.85
2022-09-22T12:28:28.069Z,1.95
2022-09-22T12:30:57.526Z,0.90
2022-09-22T12:33:25.253Z,1.23
2022-09-22T12:35:54.382Z,1.00
2022-09-22T12:38:22.735Z,2.70
2022-09-22T12:40:51.243Z,2.05
2022-09-22T12:45:48.299Z,1.60
2022-09-22T12:48:22.440Z,1.38
2022-09-22T12:50:49.753Z,2.15
2022-09-22T12:53:21.871Z,3.70
2022-09-22T12:55:55.985Z,4.28
2022-09-22T12:58:22.326Z,1.63
2022-09-22T13:00:53.334Z,0.90
2022-09-22T13:03:25.649Z,2.50
2022-09-22T13:05:54.483Z,1.40
2022-09-22T13:08:44.990Z,1.38
2022-09-22T13:11:11.712Z,5.38
2022-09-22T13:13:46.684Z,3.72
2022-09-22T13:16:16.074Z,1.20
2022-09-22T13:18:58.782Z,1.63
2022-09-22T13:21:27.322Z,1.67
2022-09-22T13:26:33.353Z,1.40
2022-09-22T13:29:13.415Z,6.28
2022-09-22T13:31:42.930Z,2.03
2022-09-22T13:34:28.989Z,2.30
2022-09-22T13:37:19.460Z,3.30
2022-09-22T13:39:53.915Z,2.40
2022-09-22T13:42:32.176Z,3.05
2022-09-22T13:45:03.564Z,3.90
2022-09-22T13:47:30.529Z,1.77
2022-09-22T13:50:04.485Z,1.30
2022-09-22T13:52:34.926Z,2.25
2022-09-22T13:55:12.940Z,1.67
2022-09-22T13:57:39.770Z,2.40
2022-09-22T14:00:09.631Z,2.92
2022-09-22T14:02:43.593Z,3.58
2022-09-22T14:05:18.682Z,2.85
2022-09-22T14:08:07.813Z,2.63
2022-09-22T14:10:33.310Z,0.98
2022-09-22T14:12:59.618Z,3.97
2022-09-22T14:15:34.728Z,4.10
2022-09-22T14:18:02.034Z,2.10
2022-09-22T14:20:28.466Z,0.95
2022-09-22T14:22:54.858Z,0.98
2022-09-22T14:25:22.969Z,0.70
2022-09-22T14:27:55.293Z,1.58
2022-09-22T14:30:31.066Z,1.30
2022-09-22T14:33:02.716Z,1.45
2022-09-22T14:35:36.218Z,2.25
2022-09-22T14:38:14.684Z,4.22
2022-09-22T14:40:52.485Z,0.60
2022-09-22T14:43:31.140Z,1.00
2022-09-22T14:46:07.342Z,0.98
2022-09-22T14:48:39.080Z,1.38
2022-09-22T14:51:12.733Z,1.08
2022-09-22T14:53:46.407Z,2.20
2022-09-22T14:56:22.893Z,1.13
2022-09-22T14:58:52.200Z,2.15
2022-09-22T15:01:45.310Z,1.75
2022-09-22T15:04:18.477Z,2.17
2022-09-22T15:06:46.678Z,1.20
2022-09-22T15:09:23.619Z,0.82
2022-09-22T15:11:53.079Z,3.38
2022-09-22T15:14:44.635Z,5.07
2022-09-22T15:18:19.476Z,2.95
2022-09-22T15:20:58.542Z,2.53
2022-09-22T15:23:46.840Z,1.95
2022-09-22T15:28:53.587Z,2.08
2022-09-22T15:31:26.537Z,2.70
2022-09-22T15:33:56.906Z,2.00
2022-09-22T15:36:25.610Z,1.40
2022-09-22T15:38:59.678Z,7.25
2022-09-22T15:41:27.384Z,2.85
2022-09-22T15:43:53.898Z,2.00
2022-09-22T15:46:35.479Z,1.80
2022-09-22T15:49:10.025Z,1.00
2022-09-22T15:51:36.502Z,3.20
2022-09-22T15:54:02.954Z,2.45
2022-09-22T15:56:30.352Z,7.20
2022-09-22T15:59:00.974Z,4.35
2022-09-22T16:01:29.251Z,6.00
2022-09-22T16:03:55.845Z,5.00
2022-09-22T16:06:22.381Z,1.55
2022-09-22T16:08:51.678Z,2.30
2022-09-22T16:11:28.281Z,2.72
2022-09-22T16:13:58.801Z,5.38
2022-09-22T16:16:27.210Z,1.63
2022-09-22T16:18:53.678Z,2.47
2022-09-22T16:21:29.227Z,1.35
2022-09-22T16:24:01.699Z,2.00
2022-09-22T16:26:31.438Z,1.63
2022-09-22T16:28:58.801Z,1.48
2022-09-22T16:31:25.692Z,1.52
2022-09-22T16:33:56.120Z,4.80
2022-09-22T16:36:24.609Z,1.73
2022-09-22T16:38:50.889Z,1.75
2022-09-22T16:41:28.503Z,2.75
2022-09-22T16:43:56.340Z,5.80
2022-09-22T16:46:31.046Z,6.43
2022-09-22T16:49:08.051Z,2.28
2022-09-22T16:51:48.665Z,7.07
2022-09-22T16:54:15.928Z,3.30
2022-09-22T16:56:44.326Z,4.63
2022-09-22T16:59:13.128Z,2.95
2022-09-22T17:01:39.462Z,5.13
2022-09-22T17:04:07.484Z,7.35
2022-09-22T17:06:36.014Z,2.95
2022-09-22T17:09:02.693Z,3.38
2022-09-22T17:11:32.982Z,7.47
2022-09-22T17:14:02.794Z,7.75
2022-09-22T17:16:31.314Z,7.63
2022-09-22T17:21:30.162Z,3.17
2022-09-22T17:24:01.977Z,4.53
2022-09-22T17:26:41.208Z,4.97
2022-09-22T17:29:08.370Z,10.02
2022-09-22T17:31:36.540Z,6.35
2022-09-22T17:34:03.579Z,7.75
2022-09-22T17:36:30.212Z,4.85
2022-09-22T17:38:58.741Z,4.30
2022-09-22T17:43:57.507Z,3.05
2022-09-22T17:46:25.791Z,6.97
2022-09-22T17:49:11.018Z,6.18
2022-09-22T17:52:08.919Z,2.60
2022-09-22T17:55:00.336Z,3.00
2022-09-22T17:57:31.524Z,9.18
2022-09-22T17:59:58.880Z,6.15
2022-09-22T18:02:32.140Z,14.02
2022-09-22T18:04:58.870Z,15.30
2022-09-22T18:07:26.782Z,8.73
2022-09-22T18:09:55.343Z,15.38
2022-09-22T18:14:52.988Z,10.70
2022-09-22T18:17:23.761Z,10.60
2022-09-22T18:19:56.263Z,12.88
2022-09-22T18:22:24.653Z,9.70
2022-09-22T18:24:54.463Z,6.30
2022-09-22T18:27:21.464Z,13.32
2022-09-22T18:29:53.369Z,7.00
2022-09-22T18:32:20.277Z,14.32
2022-09-22T18:34:47.869Z,5.00
2022-09-22T18:37:15.624Z,7.75
2022-09-22T18:39:44.585Z,9.40
2022-09-22T18:42:14.258Z,10.10
2022-09-22T18:44:41.402Z,17.88
2022-09-22T18:47:11.547Z,9.88
2022-09-22T18:49:40.476Z,6.70
2022-09-22T18:52:07.791Z,8.52
2022-09-22T18:54:35.245Z,7.32
2022-09-22T18:57:03.377Z,7.18
2022-09-22T18:59:29.885Z,20.45
2022-09-22T19:01:56.309Z,22.02
2022-09-22T19:04:24.778Z,13.05
2022-09-22T19:07:11.899Z,19.17
2022-09-22T19:09:38.422Z,19.80
2022-09-22T19:12:07.864Z,24.98
2022-09-22T19:14:38.157Z,11.85
2022-09-22T19:17:11.795Z,13.65
2022-09-22T19:19:42.389Z,17.02
2022-09-22T19:22:12.259Z,13.98
2022-09-22T19:24:40.072Z,9.50
2022-09-22T19:27:09.100Z,14.07
2022-09-22T19:29:35.792Z,9.63
2022-09-22T19:32:03.962Z,11.57
2022-09-22T19:34:30.856Z,11.73
2022-09-22T19:36:58.187Z,12.88
2022-09-22T19:39:24.652Z,8.63
2022-09-22T19:41:52.445Z,8.98
2022-09-22T19:44:20.746Z,11.55
2022-09-22T19:46:47.566Z,7.40
2022-09-22T19:49:15.221Z,8.85
2022-09-22T19:51:44.847Z,11.37
2022-09-22T19:54:11.635Z,16.58
2022-09-22T19:56:38.174Z,9.57
2022-09-22T19:59:07.093Z,18.17
2022-09-22T20:01:41.939Z,10.63
2022-09-22T20:04:22.310Z,12.38
2022-09-22T20:06:48.948Z,11.23
2022-09-22T20:09:16.177Z,9.23
2022-09-22T20:11:45.614Z,9.20
2022-09-22T20:14:22.342Z,8.55
2022-09-22T20:17:11.124Z,10.80
2022-09-22T20:19:38.311Z,12.20
2022-09-22T20:22:27.568Z,10.50
2022-09-22T20:24:57.297Z,13.68
2022-09-22T20:27:26.364Z,11.23
2022-09-22T20:29:57.003Z,15.23
2022-09-22T20:32:25.097Z,12.13
2022-09-22T20:34:52.435Z,13.17
2022-09-22T20:37:18.732Z,15.00
2022-09-22T20:39:45.273Z,11.20
2022-09-22T20:42:13.330Z,11.73
2022-09-22T20:44:43.395Z,11.20
2022-09-22T20:47:13.759Z,14.00
2022-09-22T20:49:41.748Z,8.88
2022-09-22T20:52:10.004Z,9.98
2022-09-22T20:54:36.781Z,7.68
2022-09-22T20:57:03.095Z,10.98
2022-09-22T20:59:29.372Z,8.90
2022-09-22T21:01:58.401Z,9.07
2022-09-22T21:04:24.755Z,7.80
2022-09-22T21:06:51.061Z,10.85
2022-09-22T21:09:35.901Z,9.93
2022-09-22T21:12:02.208Z,9.40
2022-09-22T21:14:29.081Z,8.27
2022-09-22T21:16:55.369Z,8.98
2022-09-22T21:19:21.733Z,11.07
2022-09-22T21:21:48.041Z,14.40
2022-09-22T21:24:14.656Z,10.75
2022-09-22T21:26:40.962Z,9.40
2022-09-22T21:29:09.307Z,12.07
2022-09-22T21:31:37.167Z,12.68
2022-09-22T21:34:03.912Z,7.18
2022-09-22T21:36:30.240Z,6.68
2022-09-22T21:38:59.017Z,7.90
2022-09-22T21:41:27.680Z,12.85
2022-09-22T21:46:22.779Z,10.73
2022-09-22T21:51:20.397Z,9.63
2022-09-22T21:53:48.603Z,9.27
2022-09-22T21:56:17.589Z,14.32
2022-09-22T21:58:46.262Z,8.43
2022-09-22T22:01:20.012Z,14.55
2022-09-22T22:03:47.986Z,7.28
2022-09-22T22:06:26.184Z,10.65
2022-09-22T22:09:03.973Z,6.45
2022-09-22T22:11:42.868Z,8.25
2022-09-22T22:14:12.470Z,9.63
2022-09-22T22:16:44.213Z,7.22
2022-09-22T22:19:14.304Z,9.40
2022-09-22T22:21:42.804Z,12.52
2022-09-22T22:24:17.455Z,7.05
2022-09-22T22:27:09.958Z,11.57
2022-09-22T22:29:38.631Z,6.55
2022-09-22T22:34:32.485Z,9.13
2022-09-22T22:36:58.828Z,8.10
2022-09-22T22:39:25.558Z,7.50
2022-09-22T22:41:54.373Z,11.55
2022-09-22T22:44:20.816Z,11.77
2022-09-22T22:46:47.917Z,7.90
2022-09-22T22:49:14.245Z,6.43
2022-09-22T22:51:45.771Z,13.07
2022-09-22T22:54:14.235Z,6.88
2022-09-22T22:56:42.448Z,12.73
2022-09-22T22:59:10.976Z,7.53
2022-09-22T23:01:37.597Z,8.73
2022-09-22T23:04:06.490Z,7.50
2022-09-22T23:06:39.367Z,14.13
2022-09-22T23:09:08.276Z,11.40
2022-09-22T23:11:37.572Z,5.55
2022-09-22T23:14:06.246Z,6.45
2022-09-22T23:16:41.109Z,7.97
2022-09-22T23:19:10.231Z,7.65
2022-09-22T23:21:37.050Z,6.53
2022-09-22T23:24:04.965Z,7.85
2022-09-22T23:26:31.874Z,7.45
2022-09-22T23:28:58.697Z,7.47
2022-09-22T23:31:25.880Z,8.27
2022-09-22T23:33:54.067Z,6.20
2022-09-22T23:36:22.843Z,5.70
2022-09-22T23:38:54.348Z,7.80
2022-09-22T23:41:20.930Z,7.88
2022-09-22T23:43:47.249Z,6.80
2022-09-22T23:46:13.618Z,5.20
2022-09-22T23:48:40.132Z,4.72
2022-09-22T23:51:06.700Z,6.93
2022-09-22T23:53:35.601Z,9.52
2022-09-22T23:56:02.749Z,5.95
2022-09-22T23:58:30.324Z,8.35
